sensor_id;sensor_type;location;lat;lon;timestamp;temperature;humidity
13328;DHT22;6733;51.044;3.746;2024-02-16T00:01:21;13.30;71.80
13328;DHT22;6733;51.044;3.746;2024-02-16T00:03:49;13.40;71.80
13328;DHT22;6733;51.044;3.746;2024-02-16T00:06:15;13.30;71.80
13328;DHT22;6733;51.044;3.746;2024-02-16T00:08:41;13.30;71.90
13328;DHT22;6733;51.044;3.746;2024-02-16T00:11:07;13.30;72.00
13328;DHT22;6733;51.044;3.746;2024-02-16T00:13:33;13.30;72.00
13328;DHT22;6733;51.044;3.746;2024-02-16T00:15:59;13.40;72.10
13328;DHT22;6733;51.044;3.746;2024-02-16T00:18:25;13.40;72.00
13328;DHT22;6733;51.044;3.746;2024-02-16T00:20:52;13.40;72.00
13328;DHT22;6733;51.044;3.746;2024-02-16T00:23:18;13.40;71.90
13328;DHT22;6733;51.044;3.746;2024-02-16T00:25:48;13.40;72.00
13328;DHT22;6733;51.044;3.746;2024-02-16T00:28:14;13.40;72.10
13328;DHT22;6733;51.044;3.746;2024-02-16T00:30:40;13.30;72.20
13328;DHT22;6733;51.044;3.746;2024-02-16T00:33:07;13.40;72.20
13328;DHT22;6733;51.044;3.746;2024-02-16T00:35:33;13.40;72.20
13328;DHT22;6733;51.044;3.746;2024-02-16T00:38:00;13.40;72.30
13328;DHT22;6733;51.044;3.746;2024-02-16T00:40:26;13.40;72.30
13328;DHT22;6733;51.044;3.746;2024-02-16T00:42:52;13.40;72.30
13328;DHT22;6733;51.044;3.746;2024-02-16T00:45:18;13.40;72.30
13328;DHT22;6733;51.044;3.746;2024-02-16T00:47:45;13.40;72.30
13328;DHT22;6733;51.044;3.746;2024-02-16T00:50:12;13.40;72.30
13328;DHT22;6733;51.044;3.746;2024-02-16T00:52:38;13.40;72.20
13328;DHT22;6733;51.044;3.746;2024-02-16T00:55:05;13.40;72.20
13328;DHT22;6733;51.044;3.746;2024-02-16T00:57:32;13.40;72.30
13328;DHT22;6733;51.044;3.746;2024-02-16T01:00:00;13.40;72.20
13328;DHT22;6733;51.044;3.746;2024-02-16T01:02:26;13.40;72.10
13328;DHT22;6733;51.044;3.746;2024-02-16T01:04:52;13.40;72.20
13328;DHT22;6733;51.044;3.746;2024-02-16T01:07:20;13.40;72.20
13328;DHT22;6733;51.044;3.746;2024-02-16T01:09:46;13.40;72.20
13328;DHT22;6733;51.044;3.746;2024-02-16T01:12:14;13.40;72.20
13328;DHT22;6733;51.044;3.746;2024-02-16T01:14:40;13.50;72.10
13328;DHT22;6733;51.044;3.746;2024-02-16T01:17:06;13.40;72.10
13328;DHT22;6733;51.044;3.746;2024-02-16T01:19:32;13.50;72.10
13328;DHT22;6733;51.044;3.746;2024-02-16T01:21:59;13.40;72.20
13328;DHT22;6733;51.044;3.746;2024-02-16T01:24:26;13.40;72.30
13328;DHT22;6733;51.044;3.746;2024-02-16T01:26:52;13.40;72.20
13328;DHT22;6733;51.044;3.746;2024-02-16T01:29:18;13.40;72.20
13328;DHT22;6733;51.044;3.746;2024-02-16T01:31:45;13.40;72.20
13328;DHT22;6733;51.044;3.746;2024-02-16T01:34:11;13.40;72.20
13328;DHT22;6733;51.044;3.746;2024-02-16T01:36:37;13.40;72.10
13328;DHT22;6733;51.044;3.746;2024-02-16T01:39:04;13.40;72.20
13328;DHT22;6733;51.044;3.746;2024-02-16T01:41:30;13.50;72.20
13328;DHT22;6733;51.044;3.746;2024-02-16T01:43:56;13.50;72.10
13328;DHT22;6733;51.044;3.746;2024-02-16T01:46:23;13.50;72.10
13328;DHT22;6733;51.044;3.746;2024-02-16T01:48:49;13.50;72.10
13328;DHT22;6733;51.044;3.746;2024-02-16T01:51:17;13.50;72.00
13328;DHT22;6733;51.044;3.746;2024-02-16T01:53:43;13.40;72.20
13328;DHT22;6733;51.044;3.746;2024-02-16T01:56:09;13.50;72.10
13328;DHT22;6733;51.044;3.746;2024-02-16T01:58:35;13.50;72.10
13328;DHT22;6733;51.044;3.746;2024-02-16T02:01:02;13.50;72.10
13328;DHT22;6733;51.044;3.746;2024-02-16T02:03:29;13.50;72.10
13328;DHT22;6733;51.044;3.746;2024-02-16T02:05:55;13.40;72.20
13328;DHT22;6733;51.044;3.746;2024-02-16T02:08:22;13.40;72.30
13328;DHT22;6733;51.044;3.746;2024-02-16T02:10:48;13.40;72.40
13328;DHT22;6733;51.044;3.746;2024-02-16T02:13:15;13.40;72.50
13328;DHT22;6733;51.044;3.746;2024-02-16T02:15:41;13.30;72.60
13328;DHT22;6733;51.044;3.746;2024-02-16T02:18:07;13.30;72.70
13328;DHT22;6733;51.044;3.746;2024-02-16T02:20:33;13.30;72.70
13328;DHT22;6733;51.044;3.746;2024-02-16T02:22:59;13.40;72.70
13328;DHT22;6733;51.044;3.746;2024-02-16T02:25:26;13.30;72.90
13328;DHT22;6733;51.044;3.746;2024-02-16T02:27:54;13.30;72.90
13328;DHT22;6733;51.044;3.746;2024-02-16T02:30:21;13.30;73.00
13328;DHT22;6733;51.044;3.746;2024-02-16T02:32:49;13.40;72.90
13328;DHT22;6733;51.044;3.746;2024-02-16T02:35:40;13.40;72.90
13328;DHT22;6733;51.044;3.746;2024-02-16T02:38:31;13.40;72.90
13328;DHT22;6733;51.044;3.746;2024-02-16T02:41:22;13.40;73.00
13328;DHT22;6733;51.044;3.746;2024-02-16T02:44:13;13.40;73.00
13328;DHT22;6733;51.044;3.746;2024-02-16T02:47:04;13.50;73.00
13328;DHT22;6733;51.044;3.746;2024-02-16T02:49:54;13.50;73.00
13328;DHT22;6733;51.044;3.746;2024-02-16T02:52:46;13.50;73.10
13328;DHT22;6733;51.044;3.746;2024-02-16T02:55:37;13.50;73.10
13328;DHT22;6733;51.044;3.746;2024-02-16T02:58:28;13.50;73.10
13328;DHT22;6733;51.044;3.746;2024-02-16T03:00:55;13.50;73.20
13328;DHT22;6733;51.044;3.746;2024-02-16T03:03:22;13.50;73.20
13328;DHT22;6733;51.044;3.746;2024-02-16T03:05:49;13.50;73.20
13328;DHT22;6733;51.044;3.746;2024-02-16T03:08:16;13.50;73.30
13328;DHT22;6733;51.044;3.746;2024-02-16T03:10:42;13.60;73.30
13328;DHT22;6733;51.044;3.746;2024-02-16T03:13:10;13.60;73.40
13328;DHT22;6733;51.044;3.746;2024-02-16T03:15:38;13.60;73.40
13328;DHT22;6733;51.044;3.746;2024-02-16T03:18:05;13.60;73.40
13328;DHT22;6733;51.044;3.746;2024-02-16T03:20:35;13.60;73.50
13328;DHT22;6733;51.044;3.746;2024-02-16T03:23:02;13.60;73.60
13328;DHT22;6733;51.044;3.746;2024-02-16T03:25:29;13.70;73.60
13328;DHT22;6733;51.044;3.746;2024-02-16T03:27:55;13.70;73.60
13328;DHT22;6733;51.044;3.746;2024-02-16T03:30:22;13.70;73.70
13328;DHT22;6733;51.044;3.746;2024-02-16T03:32:49;13.70;73.70
13328;DHT22;6733;51.044;3.746;2024-02-16T03:35:15;13.70;73.70
13328;DHT22;6733;51.044;3.746;2024-02-16T03:37:42;13.80;73.60
13328;DHT22;6733;51.044;3.746;2024-02-16T03:40:08;13.80;73.70
13328;DHT22;6733;51.044;3.746;2024-02-16T03:42:36;13.80;73.70
13328;DHT22;6733;51.044;3.746;2024-02-16T03:45:02;13.80;73.60
13328;DHT22;6733;51.044;3.746;2024-02-16T03:47:28;13.80;73.70
13328;DHT22;6733;51.044;3.746;2024-02-16T03:49:55;13.90;73.70
13328;DHT22;6733;51.044;3.746;2024-02-16T03:52:21;13.90;73.60
13328;DHT22;6733;51.044;3.746;2024-02-16T03:54:47;13.90;73.50
13328;DHT22;6733;51.044;3.746;2024-02-16T03:57:15;13.90;73.50
13328;DHT22;6733;51.044;3.746;2024-02-16T03:59:43;14.00;73.50
13328;DHT22;6733;51.044;3.746;2024-02-16T04:02:12;14.00;73.50
13328;DHT22;6733;51.044;3.746;2024-02-16T04:04:39;14.00;73.50
13328;DHT22;6733;51.044;3.746;2024-02-16T04:07:05;14.00;73.50
13328;DHT22;6733;51.044;3.746;2024-02-16T04:09:35;14.00;73.60
13328;DHT22;6733;51.044;3.746;2024-02-16T04:12:01;14.00;73.50
13328;DHT22;6733;51.044;3.746;2024-02-16T04:14:32;14.00;73.60
13328;DHT22;6733;51.044;3.746;2024-02-16T04:16:59;14.00;73.50
13328;DHT22;6733;51.044;3.746;2024-02-16T04:19:26;14.10;73.50
13328;DHT22;6733;51.044;3.746;2024-02-16T04:21:52;14.10;73.50
13328;DHT22;6733;51.044;3.746;2024-02-16T04:24:18;14.10;73.50
13328;DHT22;6733;51.044;3.746;2024-02-16T04:26:44;14.10;73.60
13328;DHT22;6733;51.044;3.746;2024-02-16T04:29:11;14.10;73.60
13328;DHT22;6733;51.044;3.746;2024-02-16T04:31:41;14.10;73.60
13328;DHT22;6733;51.044;3.746;2024-02-16T04:34:13;14.10;73.60
13328;DHT22;6733;51.044;3.746;2024-02-16T04:36:40;14.10;73.60
13328;DHT22;6733;51.044;3.746;2024-02-16T04:39:07;14.10;73.70
13328;DHT22;6733;51.044;3.746;2024-02-16T04:41:33;14.10;73.60
13328;DHT22;6733;51.044;3.746;2024-02-16T04:43:59;14.10;73.80
13328;DHT22;6733;51.044;3.746;2024-02-16T04:46:25;14.10;73.80
13328;DHT22;6733;51.044;3.746;2024-02-16T04:48:53;14.10;73.90
13328;DHT22;6733;51.044;3.746;2024-02-16T04:51:19;14.10;73.90
13328;DHT22;6733;51.044;3.746;2024-02-16T04:53:45;14.10;74.10
13328;DHT22;6733;51.044;3.746;2024-02-16T04:56:11;14.10;74.20
13328;DHT22;6733;51.044;3.746;2024-02-16T04:58:41;14.10;74.10
13328;DHT22;6733;51.044;3.746;2024-02-16T05:01:07;14.10;74.20
13328;DHT22;6733;51.044;3.746;2024-02-16T05:03:33;14.10;74.30
13328;DHT22;6733;51.044;3.746;2024-02-16T05:06:00;14.00;74.50
13328;DHT22;6733;51.044;3.746;2024-02-16T05:08:26;14.00;74.70
13328;DHT22;6733;51.044;3.746;2024-02-16T05:10:53;14.00;74.80
13328;DHT22;6733;51.044;3.746;2024-02-16T05:13:19;13.90;75.10
13328;DHT22;6733;51.044;3.746;2024-02-16T05:15:45;13.90;75.10
13328;DHT22;6733;51.044;3.746;2024-02-16T05:18:13;13.80;75.40
13328;DHT22;6733;51.044;3.746;2024-02-16T05:20:40;13.80;75.60
13328;DHT22;6733;51.044;3.746;2024-02-16T05:23:06;13.80;75.70
13328;DHT22;6733;51.044;3.746;2024-02-16T05:25:32;13.80;75.80
13328;DHT22;6733;51.044;3.746;2024-02-16T05:27:58;13.80;75.90
13328;DHT22;6733;51.044;3.746;2024-02-16T05:30:25;13.80;76.00
13328;DHT22;6733;51.044;3.746;2024-02-16T05:32:51;13.80;76.10
13328;DHT22;6733;51.044;3.746;2024-02-16T05:35:19;13.70;76.30
13328;DHT22;6733;51.044;3.746;2024-02-16T05:37:48;13.70;76.50
13328;DHT22;6733;51.044;3.746;2024-02-16T05:40:17;13.70;76.50
13328;DHT22;6733;51.044;3.746;2024-02-16T05:42:57;13.80;76.50
13328;DHT22;6733;51.044;3.746;2024-02-16T05:45:25;13.70;76.60
13328;DHT22;6733;51.044;3.746;2024-02-16T05:47:54;13.70;76.60
13328;DHT22;6733;51.044;3.746;2024-02-16T05:50:21;13.80;76.70
13328;DHT22;6733;51.044;3.746;2024-02-16T05:52:48;13.80;76.70
13328;DHT22;6733;51.044;3.746;2024-02-16T05:55:15;13.80;76.70
13328;DHT22;6733;51.044;3.746;2024-02-16T05:57:44;13.80;76.90
13328;DHT22;6733;51.044;3.746;2024-02-16T06:00:12;13.80;76.90
13328;DHT22;6733;51.044;3.746;2024-02-16T06:02:39;13.80;76.90
13328;DHT22;6733;51.044;3.746;2024-02-16T06:05:05;13.80;77.00
13328;DHT22;6733;51.044;3.746;2024-02-16T06:07:32;13.80;77.00
13328;DHT22;6733;51.044;3.746;2024-02-16T06:09:58;13.80;77.00
13328;DHT22;6733;51.044;3.746;2024-02-16T06:12:24;13.80;77.10
13328;DHT22;6733;51.044;3.746;2024-02-16T06:14:51;13.90;77.00
13328;DHT22;6733;51.044;3.746;2024-02-16T06:17:19;13.90;77.20
13328;DHT22;6733;51.044;3.746;2024-02-16T06:19:45;13.80;77.30
13328;DHT22;6733;51.044;3.746;2024-02-16T06:22:11;13.80;77.30
13328;DHT22;6733;51.044;3.746;2024-02-16T06:24:38;13.90;77.40
13328;DHT22;6733;51.044;3.746;2024-02-16T06:27:04;13.90;77.50
13328;DHT22;6733;51.044;3.746;2024-02-16T06:29:30;13.80;77.50
13328;DHT22;6733;51.044;3.746;2024-02-16T06:31:57;13.80;77.70
13328;DHT22;6733;51.044;3.746;2024-02-16T06:34:23;13.90;77.70
13328;DHT22;6733;51.044;3.746;2024-02-16T06:36:49;13.90;77.80
13328;DHT22;6733;51.044;3.746;2024-02-16T06:39:16;13.90;77.90
13328;DHT22;6733;51.044;3.746;2024-02-16T06:41:45;13.90;77.90
13328;DHT22;6733;51.044;3.746;2024-02-16T06:44:12;13.90;78.00
13328;DHT22;6733;51.044;3.746;2024-02-16T06:46:38;13.90;78.20
13328;DHT22;6733;51.044;3.746;2024-02-16T06:49:04;13.90;78.30
13328;DHT22;6733;51.044;3.746;2024-02-16T06:51:30;13.90;78.40
13328;DHT22;6733;51.044;3.746;2024-02-16T06:53:57;13.90;78.50
13328;DHT22;6733;51.044;3.746;2024-02-16T06:56:23;14.00;78.50
13328;DHT22;6733;51.044;3.746;2024-02-16T06:58:50;13.90;78.60
13328;DHT22;6733;51.044;3.746;2024-02-16T07:01:16;13.90;78.90
13328;DHT22;6733;51.044;3.746;2024-02-16T07:03:44;13.90;78.90
13328;DHT22;6733;51.044;3.746;2024-02-16T07:06:11;13.90;79.00
13328;DHT22;6733;51.044;3.746;2024-02-16T07:08:40;13.90;79.00
13328;DHT22;6733;51.044;3.746;2024-02-16T07:11:06;14.00;79.00
13328;DHT22;6733;51.044;3.746;2024-02-16T07:13:33;14.00;79.00
13328;DHT22;6733;51.044;3.746;2024-02-16T07:16:00;13.90;79.00
13328;DHT22;6733;51.044;3.746;2024-02-16T07:18:26;14.00;79.10
13328;DHT22;6733;51.044;3.746;2024-02-16T07:20:52;14.00;79.10
13328;DHT22;6733;51.044;3.746;2024-02-16T07:23:18;13.90;79.20
13328;DHT22;6733;51.044;3.746;2024-02-16T07:25:45;14.00;79.40
13328;DHT22;6733;51.044;3.746;2024-02-16T07:28:11;14.00;79.40
13328;DHT22;6733;51.044;3.746;2024-02-16T07:30:38;14.00;79.40
13328;DHT22;6733;51.044;3.746;2024-02-16T07:33:07;14.00;79.30
13328;DHT22;6733;51.044;3.746;2024-02-16T07:35:36;14.00;79.40
13328;DHT22;6733;51.044;3.746;2024-02-16T07:38:04;14.00;79.40
13328;DHT22;6733;51.044;3.746;2024-02-16T07:40:31;14.00;79.40
13328;DHT22;6733;51.044;3.746;2024-02-16T07:42:57;14.00;79.40
13328;DHT22;6733;51.044;3.746;2024-02-16T07:45:23;13.90;79.50
13328;DHT22;6733;51.044;3.746;2024-02-16T07:47:50;14.00;79.70
13328;DHT22;6733;51.044;3.746;2024-02-16T07:50:23;14.00;79.70
13328;DHT22;6733;51.044;3.746;2024-02-16T07:52:50;14.00;79.80
13328;DHT22;6733;51.044;3.746;2024-02-16T07:55:17;14.00;79.90
13328;DHT22;6733;51.044;3.746;2024-02-16T07:57:46;13.90;79.90
13328;DHT22;6733;51.044;3.746;2024-02-16T08:00:13;14.00;79.90
13328;DHT22;6733;51.044;3.746;2024-02-16T08:02:42;14.00;80.20
13328;DHT22;6733;51.044;3.746;2024-02-16T08:05:11;14.00;80.50
13328;DHT22;6733;51.044;3.746;2024-02-16T08:07:41;14.00;80.60
13328;DHT22;6733;51.044;3.746;2024-02-16T08:10:09;14.00;80.70
13328;DHT22;6733;51.044;3.746;2024-02-16T08:12:35;14.00;80.80
13328;DHT22;6733;51.044;3.746;2024-02-16T08:15:03;14.00;80.80
13328;DHT22;6733;51.044;3.746;2024-02-16T08:17:30;14.10;80.80
13328;DHT22;6733;51.044;3.746;2024-02-16T08:19:57;14.10;80.90
13328;DHT22;6733;51.044;3.746;2024-02-16T08:22:23;14.00;81.00
13328;DHT22;6733;51.044;3.746;2024-02-16T08:24:49;14.10;81.20
13328;DHT22;6733;51.044;3.746;2024-02-16T08:27:16;14.00;81.40
13328;DHT22;6733;51.044;3.746;2024-02-16T08:29:43;14.10;81.50
13328;DHT22;6733;51.044;3.746;2024-02-16T08:32:09;14.10;81.50
13328;DHT22;6733;51.044;3.746;2024-02-16T08:34:36;14.10;81.50
13328;DHT22;6733;51.044;3.746;2024-02-16T08:37:04;14.10;81.50
13328;DHT22;6733;51.044;3.746;2024-02-16T08:39:31;14.10;81.40
13328;DHT22;6733;51.044;3.746;2024-02-16T08:41:57;14.10;81.50
13328;DHT22;6733;51.044;3.746;2024-02-16T08:44:25;14.20;81.50
13328;DHT22;6733;51.044;3.746;2024-02-16T08:46:52;14.20;81.70
13328;DHT22;6733;51.044;3.746;2024-02-16T08:49:20;14.10;81.80
13328;DHT22;6733;51.044;3.746;2024-02-16T08:51:47;14.10;81.70
13328;DHT22;6733;51.044;3.746;2024-02-16T08:54:13;14.20;81.60
13328;DHT22;6733;51.044;3.746;2024-02-16T08:56:39;14.20;81.60
13328;DHT22;6733;51.044;3.746;2024-02-16T08:59:06;14.20;81.60
13328;DHT22;6733;51.044;3.746;2024-02-16T09:01:36;14.20;81.70
13328;DHT22;6733;51.044;3.746;2024-02-16T09:04:03;14.20;81.80
13328;DHT22;6733;51.044;3.746;2024-02-16T09:06:29;14.20;81.90
13328;DHT22;6733;51.044;3.746;2024-02-16T09:08:56;14.10;81.90
13328;DHT22;6733;51.044;3.746;2024-02-16T09:11:23;14.10;82.20
13328;DHT22;6733;51.044;3.746;2024-02-16T09:13:49;14.10;82.30
13328;DHT22;6733;51.044;3.746;2024-02-16T09:16:16;14.10;82.40
13328;DHT22;6733;51.044;3.746;2024-02-16T09:18:42;14.10;82.60
13328;DHT22;6733;51.044;3.746;2024-02-16T09:21:09;14.10;82.80
13328;DHT22;6733;51.044;3.746;2024-02-16T09:23:36;14.20;82.90
13328;DHT22;6733;51.044;3.746;2024-02-16T09:26:02;14.20;83.10
13328;DHT22;6733;51.044;3.746;2024-02-16T09:28:29;14.10;83.40
13328;DHT22;6733;51.044;3.746;2024-02-16T09:30:56;14.10;83.60
13328;DHT22;6733;51.044;3.746;2024-02-16T09:33:23;14.10;83.80
13328;DHT22;6733;51.044;3.746;2024-02-16T09:35:50;14.10;84.10
13328;DHT22;6733;51.044;3.746;2024-02-16T09:38:17;14.10;84.30
13328;DHT22;6733;51.044;3.746;2024-02-16T09:40:44;14.00;84.70
13328;DHT22;6733;51.044;3.746;2024-02-16T09:43:20;13.90;85.00
13328;DHT22;6733;51.044;3.746;2024-02-16T09:45:47;13.90;85.30
13328;DHT22;6733;51.044;3.746;2024-02-16T09:48:14;13.90;85.50
13328;DHT22;6733;51.044;3.746;2024-02-16T09:50:40;13.90;85.70
13328;DHT22;6733;51.044;3.746;2024-02-16T09:53:07;13.80;86.20
13328;DHT22;6733;51.044;3.746;2024-02-16T09:55:34;13.80;86.70
13328;DHT22;6733;51.044;3.746;2024-02-16T09:58:01;13.70;87.30
13328;DHT22;6733;51.044;3.746;2024-02-16T10:00:27;13.70;87.70
13328;DHT22;6733;51.044;3.746;2024-02-16T10:02:54;13.70;88.00
13328;DHT22;6733;51.044;3.746;2024-02-16T10:05:20;13.60;88.40
13328;DHT22;6733;51.044;3.746;2024-02-16T10:07:47;13.60;88.70
13328;DHT22;6733;51.044;3.746;2024-02-16T10:10:24;13.60;89.00
13328;DHT22;6733;51.044;3.746;2024-02-16T10:13:04;13.60;89.30
13328;DHT22;6733;51.044;3.746;2024-02-16T10:15:31;13.50;89.50
13328;DHT22;6733;51.044;3.746;2024-02-16T10:17:59;13.50;89.70
13328;DHT22;6733;51.044;3.746;2024-02-16T10:20:26;13.50;90.10
13328;DHT22;6733;51.044;3.746;2024-02-16T10:23:11;13.40;90.30
13328;DHT22;6733;51.044;3.746;2024-02-16T10:25:38;13.50;90.60
13328;DHT22;6733;51.044;3.746;2024-02-16T10:28:08;13.50;90.60
13328;DHT22;6733;51.044;3.746;2024-02-16T10:30:36;13.50;90.60
13328;DHT22;6733;51.044;3.746;2024-02-16T10:33:06;13.50;90.60
13328;DHT22;6733;51.044;3.746;2024-02-16T10:35:36;13.50;90.70
13328;DHT22;6733;51.044;3.746;2024-02-16T10:38:07;13.50;90.70
13328;DHT22;6733;51.044;3.746;2024-02-16T10:40:42;13.50;90.90
13328;DHT22;6733;51.044;3.746;2024-02-16T10:43:09;13.50;90.80
13328;DHT22;6733;51.044;3.746;2024-02-16T10:45:38;13.50;90.70
13328;DHT22;6733;51.044;3.746;2024-02-16T10:48:05;13.50;90.60
13328;DHT22;6733;51.044;3.746;2024-02-16T10:50:33;13.50;90.50
13328;DHT22;6733;51.044;3.746;2024-02-16T10:53:14;13.50;90.50
13328;DHT22;6733;51.044;3.746;2024-02-16T10:55:43;13.50;90.40
13328;DHT22;6733;51.044;3.746;2024-02-16T10:58:11;13.50;90.30
13328;DHT22;6733;51.044;3.746;2024-02-16T11:00:51;13.50;90.30
13328;DHT22;6733;51.044;3.746;2024-02-16T11:03:22;13.50;90.20
13328;DHT22;6733;51.044;3.746;2024-02-16T11:05:52;13.60;90.20
13328;DHT22;6733;51.044;3.746;2024-02-16T11:08:19;13.70;89.90
13328;DHT22;6733;51.044;3.746;2024-02-16T11:10:59;13.70;89.80
13328;DHT22;6733;51.044;3.746;2024-02-16T11:13:28;13.80;89.50
13328;DHT22;6733;51.044;3.746;2024-02-16T11:16:12;13.90;89.30
13328;DHT22;6733;51.044;3.746;2024-02-16T11:18:41;13.90;89.30
13328;DHT22;6733;51.044;3.746;2024-02-16T11:21:16;13.90;88.70
13328;DHT22;6733;51.044;3.746;2024-02-16T11:23:44;13.90;88.60
13328;DHT22;6733;51.044;3.746;2024-02-16T11:26:12;14.00;88.60
13328;DHT22;6733;51.044;3.746;2024-02-16T11:28:41;14.00;88.60
13328;DHT22;6733;51.044;3.746;2024-02-16T11:31:08;13.90;88.10
13328;DHT22;6733;51.044;3.746;2024-02-16T11:33:34;13.80;88.20
13328;DHT22;6733;51.044;3.746;2024-02-16T11:36:05;13.70;87.80
13328;DHT22;6733;51.044;3.746;2024-02-16T11:38:34;13.70;87.90
13328;DHT22;6733;51.044;3.746;2024-02-16T11:43:26;13.70;88.00
13328;DHT22;6733;51.044;3.746;2024-02-16T11:45:53;13.70;87.60
13328;DHT22;6733;51.044;3.746;2024-02-16T11:48:23;13.70;87.30
13328;DHT22;6733;51.044;3.746;2024-02-16T11:51:02;13.70;87.30
13328;DHT22;6733;51.044;3.746;2024-02-16T11:53:29;13.80;87.10
13328;DHT22;6733;51.044;3.746;2024-02-16T11:55:55;13.90;86.90
13328;DHT22;6733;51.044;3.746;2024-02-16T11:58:22;14.10;86.80
13328;DHT22;6733;51.044;3.746;2024-02-16T12:00:50;14.20;86.30
13328;DHT22;6733;51.044;3.746;2024-02-16T12:03:23;14.30;86.10
13328;DHT22;6733;51.044;3.746;2024-02-16T12:05:58;14.40;85.70
13328;DHT22;6733;51.044;3.746;2024-02-16T12:08:32;14.60;85.20
13328;DHT22;6733;51.044;3.746;2024-02-16T12:10:59;14.70;84.70
13328;DHT22;6733;51.044;3.746;2024-02-16T12:13:26;14.70;84.30
13328;DHT22;6733;51.044;3.746;2024-02-16T12:15:53;14.80;83.90
13328;DHT22;6733;51.044;3.746;2024-02-16T12:18:23;14.90;83.70
13328;DHT22;6733;51.044;3.746;2024-02-16T12:21:08;14.90;83.20
13328;DHT22;6733;51.044;3.746;2024-02-16T12:23:36;14.90;82.60
13328;DHT22;6733;51.044;3.746;2024-02-16T12:26:03;15.00;82.50
13328;DHT22;6733;51.044;3.746;2024-02-16T12:28:31;15.10;82.40
13328;DHT22;6733;51.044;3.746;2024-02-16T12:31:00;15.20;81.80
13328;DHT22;6733;51.044;3.746;2024-02-16T12:33:26;15.20;81.60
13328;DHT22;6733;51.044;3.746;2024-02-16T12:35:53;15.30;81.40
13328;DHT22;6733;51.044;3.746;2024-02-16T12:38:20;15.40;81.10
13328;DHT22;6733;51.044;3.746;2024-02-16T12:40:46;15.60;80.60
13328;DHT22;6733;51.044;3.746;2024-02-16T12:43:13;15.60;80.50
13328;DHT22;6733;51.044;3.746;2024-02-16T12:45:40;15.70;80.10
13328;DHT22;6733;51.044;3.746;2024-02-16T12:48:07;15.80;79.60
13328;DHT22;6733;51.044;3.746;2024-02-16T12:50:33;15.90;78.80
13328;DHT22;6733;51.044;3.746;2024-02-16T12:52:59;16.00;78.70
13328;DHT22;6733;51.044;3.746;2024-02-16T12:55:25;16.10;78.00
13328;DHT22;6733;51.044;3.746;2024-02-16T12:57:52;16.20;77.90
13328;DHT22;6733;51.044;3.746;2024-02-16T13:00:18;16.20;77.80
13328;DHT22;6733;51.044;3.746;2024-02-16T13:02:44;16.30;77.50
13328;DHT22;6733;51.044;3.746;2024-02-16T13:05:11;16.40;76.90
13328;DHT22;6733;51.044;3.746;2024-02-16T13:07:37;16.40;76.60
13328;DHT22;6733;51.044;3.746;2024-02-16T13:10:06;16.40;76.40
13328;DHT22;6733;51.044;3.746;2024-02-16T13:12:33;16.40;76.00
13328;DHT22;6733;51.044;3.746;2024-02-16T13:14:59;16.40;76.10
13328;DHT22;6733;51.044;3.746;2024-02-16T13:17:25;16.50;75.50
13328;DHT22;6733;51.044;3.746;2024-02-16T13:19:54;16.50;75.10
13328;DHT22;6733;51.044;3.746;2024-02-16T13:22:20;16.40;74.60
13328;DHT22;6733;51.044;3.746;2024-02-16T13:24:47;16.40;74.00
13328;DHT22;6733;51.044;3.746;2024-02-16T13:27:13;16.40;74.20
13328;DHT22;6733;51.044;3.746;2024-02-16T13:29:39;16.40;74.00
13328;DHT22;6733;51.044;3.746;2024-02-16T13:32:05;16.20;74.30
13328;DHT22;6733;51.044;3.746;2024-02-16T13:34:31;16.00;74.90
13328;DHT22;6733;51.044;3.746;2024-02-16T13:36:57;16.00;75.40
13328;DHT22;6733;51.044;3.746;2024-02-16T13:39:23;16.00;75.60
13328;DHT22;6733;51.044;3.746;2024-02-16T13:41:50;16.00;75.60
13328;DHT22;6733;51.044;3.746;2024-02-16T13:44:17;16.00;75.60
13328;DHT22;6733;51.044;3.746;2024-02-16T13:46:46;16.00;75.50
13328;DHT22;6733;51.044;3.746;2024-02-16T13:49:13;16.10;75.20
13328;DHT22;6733;51.044;3.746;2024-02-16T13:51:42;16.10;74.80
13328;DHT22;6733;51.044;3.746;2024-02-16T13:54:08;16.10;74.60
13328;DHT22;6733;51.044;3.746;2024-02-16T13:56:35;16.20;74.70
13328;DHT22;6733;51.044;3.746;2024-02-16T13:59:05;16.20;74.40
13328;DHT22;6733;51.044;3.746;2024-02-16T14:01:33;16.20;73.90
13328;DHT22;6733;51.044;3.746;2024-02-16T14:04:00;16.20;73.50
13328;DHT22;6733;51.044;3.746;2024-02-16T14:06:27;16.20;73.60
13328;DHT22;6733;51.044;3.746;2024-02-16T14:08:53;16.20;73.00
13328;DHT22;6733;51.044;3.746;2024-02-16T14:11:19;16.10;72.80
13328;DHT22;6733;51.044;3.746;2024-02-16T14:13:45;16.20;72.40
13328;DHT22;6733;51.044;3.746;2024-02-16T14:16:12;16.20;72.10
13328;DHT22;6733;51.044;3.746;2024-02-16T14:18:38;16.00;71.90
13328;DHT22;6733;51.044;3.746;2024-02-16T14:21:04;15.80;72.50
13328;DHT22;6733;51.044;3.746;2024-02-16T14:23:31;15.90;72.60
13328;DHT22;6733;51.044;3.746;2024-02-16T14:25:58;15.90;72.40
13328;DHT22;6733;51.044;3.746;2024-02-16T14:28:24;15.80;72.50
13328;DHT22;6733;51.044;3.746;2024-02-16T14:30:50;15.80;72.80
13328;DHT22;6733;51.044;3.746;2024-02-16T14:33:17;15.80;73.00
13328;DHT22;6733;51.044;3.746;2024-02-16T14:35:43;15.90;73.20
13328;DHT22;6733;51.044;3.746;2024-02-16T14:38:10;16.10;73.00
13328;DHT22;6733;51.044;3.746;2024-02-16T14:40:37;16.20;72.60
13328;DHT22;6733;51.044;3.746;2024-02-16T14:43:03;16.30;72.20
13328;DHT22;6733;51.044;3.746;2024-02-16T14:45:29;16.70;71.60
13328;DHT22;6733;51.044;3.746;2024-02-16T14:47:56;17.20;69.50
13328;DHT22;6733;51.044;3.746;2024-02-16T14:50:23;17.50;68.10
13328;DHT22;6733;51.044;3.746;2024-02-16T14:52:50;17.50;67.20
13328;DHT22;6733;51.044;3.746;2024-02-16T14:55:16;17.40;66.70
13328;DHT22;6733;51.044;3.746;2024-02-16T14:57:43;17.30;66.60
13328;DHT22;6733;51.044;3.746;2024-02-16T15:00:11;17.20;66.80
13328;DHT22;6733;51.044;3.746;2024-02-16T15:02:38;17.20;66.50
13328;DHT22;6733;51.044;3.746;2024-02-16T15:05:07;17.20;66.70
13328;DHT22;6733;51.044;3.746;2024-02-16T15:07:34;17.10;66.70
13328;DHT22;6733;51.044;3.746;2024-02-16T15:10:01;17.00;66.80
13328;DHT22;6733;51.044;3.746;2024-02-16T15:12:29;17.00;67.20
13328;DHT22;6733;51.044;3.746;2024-02-16T15:14:55;17.10;67.50
13328;DHT22;6733;51.044;3.746;2024-02-16T15:17:21;17.10;67.30
13328;DHT22;6733;51.044;3.746;2024-02-16T15:19:47;17.10;67.10
13328;DHT22;6733;51.044;3.746;2024-02-16T15:22:13;17.40;66.60
13328;DHT22;6733;51.044;3.746;2024-02-16T15:24:40;17.50;65.90
13328;DHT22;6733;51.044;3.746;2024-02-16T15:27:06;17.50;65.80
13328;DHT22;6733;51.044;3.746;2024-02-16T15:29:32;17.90;65.50
13328;DHT22;6733;51.044;3.746;2024-02-16T15:31:59;18.40;64.00
13328;DHT22;6733;51.044;3.746;2024-02-16T15:34:28;18.60;63.20
13328;DHT22;6733;51.044;3.746;2024-02-16T15:36:55;18.50;63.30
13328;DHT22;6733;51.044;3.746;2024-02-16T15:39:23;18.60;63.00
13328;DHT22;6733;51.044;3.746;2024-02-16T15:41:51;18.90;62.40
13328;DHT22;6733;51.044;3.746;2024-02-16T15:44:17;18.90;61.90
13328;DHT22;6733;51.044;3.746;2024-02-16T15:46:43;18.70;61.70
13328;DHT22;6733;51.044;3.746;2024-02-16T15:49:10;18.50;61.90
13328;DHT22;6733;51.044;3.746;2024-02-16T15:51:36;18.20;62.50